Terminal Aerodrome Forecast
Issued by NWS

Home | Current Version | Previous Version | Text Only | Print | Product List | Glossary On
Versions: 1 2 3 4 5 6 7 8 9 10 11 12 13 14
000
FTAK31 PAJN 290500
TAFAWG
TAF
PAWG 290539Z 2906/3006 12015G25KT P6SM BKN035 OVC040 WS020/14035KT
     FM291000 12010KT 5SM -RA BR BKN025 OVC040 WS020/15030KT
     FM291500 13006KT P6SM -RA SCT010 BKN025 OVC040
     FM291900 VRB05KT P6SM VCSH SCT020 OVC050
     FM300000 10005KT P6SM BKN050
      AMD LTD TO CLD VIS AND WIND 2906/2915=

USA.gov is the U.S. government's official web portal to all federal, state and local government web resources and services.